Deering, MO (63840)

11:26 PM CDT on March 29, 2017 (GMT -0500)
Kennett E911 | | Change Station

Elev 262 ft 36.24 °N, 90.06 °W | Updated 17 seconds ago

Partly Cloudy
Partly Cloudy
69.4 °F
Feels Like 69.4 °F
N
3.0
Wind Variable Wind from SE
Gusts 9.0 mph

Today
High -- | Low -- °F
--% Chance of Precip.
Yesterday
High -- | Low -- °F
Precip. -- in
Pressure 29.75 in
Visibility 10.0 miles
Clouds Clear
Dew Point 60 °F
Humidity 73%
Rainfall 0.00 in
Snow Depth Not available.
6:49 AM 7:19 PM
Waxing Crescent, 6% visible
METAR KHKA 300353Z AUTO 14010KT 10SM CLR 22/14 A2975 RMK AO2 SLP073 T02170139 $
Pressure 29.75 in
Visibility 10.0 miles
Clouds Clear
Dew Point 60 °F
Humidity 73%
Rainfall 0.00 in
Snow Depth Not available.
6:49 AM 7:19 PM
Waxing Crescent, 6% visible
METAR KHKA 300353Z AUTO 14010KT 10SM CLR 22/14 A2975 RMK AO2 SLP073 T02170139 $

Get Severe Weather Alerts

Thanks for signing up!

Be on the lookout for a verification email in your inbox.

You'll start receiving the daily forecast at 8 AM.

×

10-Day Weather Forecast

Almanac

Astronomy

Mar. 29, 2017 Rise Set
Actual Time
Civil Twilight
Nautical Twilight
Astronomical Twilight
Moon
Length of Visible Light
Length of Day
Tomorrow will be .
, % of the Moon is Illuminated

Today's Extremes

State Highs State Lows

Community

WunderPhotos

Upload Photos

1,962,540 photos uploaded!

WunderBlog® & News

Nearby

Air Quality

  Air Quality AQ Index Pollutant
Not available.

Snow Depth

Station Depth Elevation

Earthquake Activity

City Distance Mag. Time & Date
Minimum magnitude displayed is 2.5.

Earthquake Activity

City Distance Mag. Time & Date
Minimum magnitude displayed is 2.5.

Coastal Water Temperatures

Place Temperature

Stations

Nearby Weather Stations

Station Location Temp. Windchill Dew Point Humidity Wind Precip. Elev Updated Type
                   

Watches & Warnings

There are currently no watches in effect.